Accueil
METAR-TAF:

METAR-TAF

Aéroports :

Nantes, France

Aéroport de Nantes Atlantique

latitude: 47-10N, longitude: 001-36W, altitude: 27 m

Observation

Le bulletin a été fait il y a 16 minutes, à 10:30 UTC
Vent 7 kt de nord/nord-est, variant entre nord et est
Température 3°C
Humidité 75%
Pression 1018 hPa
Visibilité: 4300 m
brume

METAR: LFRS 221030Z AUTO 03007KT 350V080 4300 BR NSC 03/M01 Q1018 BECMG 7000 NSW

Heure: 11:46 (10:46 UTC)

Prévision

Le bulletin a été fait il y a 37 minutes, à 10:09 UTC
Prévision valable du 22 à 10 UTC au 23 à 12 UTC
Vent 8 kt de nord/nord-est
Visibilité: 4000 m
brume
Evoluant progressivement
du 22 à 11 UTC au 22 à 13 UTC
Visibilité: 7000 m

TAF: LFRS 221009Z 2210/2312 03008KT 4000 BR NSC BECMG 2211/2213 7000 NSW

Observations et prévisions météorologiques de plus de 4000 aéroports (messages METAR et TAF).

Les stations disponibles sont représentées par des disques jaunes et rouges sur la carte.

Passer la souris dessus pour voir le nom de la station.

Cliquer dessus pour voir les observations et prévisions météorologiques.

Pour changer de carte: cliquez sur les boutons verts avec une croix noire pour zoomer, sur le bouton vert avec un tiret pour effectuer un zoom arrière, ou sur les flèches vertes pour les cartes adjacentes.


METAR-TAF: